Fairfax, Missouri
Current Conditions -  °F | °C
As of 8:53 PM on Wednesday 22 Oct 2014 (Local Time) from KFNB Reporting Station
Light Rain Light Rain  
Wind Chill: 65°   Ceiling: 8000
Heat Index: 65°   Visibility: 10mi
Dew Point: 56°   Wind: 10mph
Humidity: 73%   Direction: 140°SE
Pressure: 30.05"   Gusts: NA
Location:  40.34°N, 95.39°W
Report Text: KFNB 230153Z AUTO 14009KT 10SM -RA OVC080 18/13 A3005 RMK AO2 SLP174 P0000 T01830133
Loading
Personal Weather Stations






























Interactive Weather Map
Tropical Storm Tracking
New forecast layout! Learn more

10-Day Weather Forecast

Advertisements
Track Severe Weather on mobile